logo
Search for airport 
image banner adimage banner adimage banner ad
image banner ad

LKBI - Breclav - Nemocnice

Located in Breclav, Czech Republic

ICAO - , IATA -

Data provided by Airmate  

General information

Coordinates: N48°45'8" E16°52'40"
Elevation is 518 feet MSL.
 
View others Airports in South Moravian Region

Operational data

Special qualification required
Current time UTC:
Current local time:
Weather at : LZMC - Malacky ( 43 km )
TAF: TAF LZMC 171030Z 1712/1721 34010KT 9999 BKN035 TEMPO 1712/1721 33010G20KT TEMPO 1712/1716 SCT045 PROB40 TEMPO 1712/1715 -SHRA BKN025
View NOTAMs / SUP AIP / TFR affecting this airport [VIEW]
Communications frequencies: [VIEW]

Runways:

Airport contact information

Address: Breclav Czech Republic

Satellite view of LKBI